Time,TemperatureF,DewpointF,PressureIn,WindDirection,WindDirectionDegrees,WindSpeedMPH,WindSpeedGustMPH,Humidity,HourlyPrecipIn,Conditions,Clouds,dailyrainin,SoftwareType,DateUTC
2013-07-11 00:06:00,73.1,71.0,29.98,WNW,289,0.0,0.0,94,0.00,,,0.00,weatherlink.com 1.10,2013-07-11 04:06:00,
2013-07-11 00:21:00,72.9,71.0,29.98,WNW,290,0.0,1.0,94,0.00,,,0.00,weatherlink.com 1.10,2013-07-11 04:21:00,
2013-07-11 00:36:00,72.7,71.0,29.97,WNW,290,0.0,0.0,94,0.00,,,0.00,weatherlink.com 1.10,2013-07-11 04:36:00,
2013-07-11 00:51:00,72.4,71.0,29.97,WNW,290,0.0,1.0,94,0.00,,,0.00,weatherlink.com 1.10,2013-07-11 04:51:00,
2013-07-11 01:07:00,72.4,71.0,29.96,WNW,290,0.0,1.0,95,0.00,,,0.00,weatherlink.com 1.10,2013-07-11 05:07:00,
2013-07-11 01:22:00,72.6,71.0,29.95,WNW,289,0.0,0.0,95,0.00,,,0.00,weatherlink.com 1.10,2013-07-11 05:22:00,
2013-07-11 01:37:00,72.8,71.0,29.95,WNW,290,0.0,1.0,95,0.00,,,0.00,weatherlink.com 1.10,2013-07-11 05:37:00,
2013-07-11 01:52:00,73.1,72.0,29.94,WNW,289,0.0,1.0,95,0.00,,,0.00,weatherlink.com 1.10,2013-07-11 05:52:00,
2013-07-11 02:07:00,73.1,72.0,29.94,WNW,290,0.0,1.0,95,0.00,,,0.00,weatherlink.com 1.10,2013-07-11 06:07:00,
2013-07-11 02:22:00,73.1,72.0,29.93,WNW,289,0.0,1.0,95,0.00,,,0.00,weatherlink.com 1.10,2013-07-11 06:22:00,
2013-07-11 02:37:00,73.0,72.0,29.93,SW,231,0.0,0.0,95,0.00,,,0.00,weatherlink.com 1.10,2013-07-11 06:37:00,
2013-07-11 02:52:00,73.0,72.0,29.93,South,174,0.0,1.0,95,0.00,,,0.00,weatherlink.com 1.10,2013-07-11 06:52:00,
2013-07-11 03:07:00,72.9,71.0,29.93,SSE,165,0.0,1.0,95,0.00,,,0.00,weatherlink.com 1.10,2013-07-11 07:07:00,
2013-07-11 03:22:00,72.9,71.0,29.93,SSE,158,0.0,1.0,95,0.00,,,0.00,weatherlink.com 1.10,2013-07-11 07:22:00,
2013-07-11 03:37:00,73.0,72.0,29.94,SSE,158,0.0,1.0,95,0.00,,,0.00,weatherlink.com 1.10,2013-07-11 07:37:00,
2013-07-11 03:52:00,72.9,71.0,29.94,SSE,158,0.0,1.0,95,0.00,,,0.00,weatherlink.com 1.10,2013-07-11 07:52:00,
2013-07-11 04:07:00,72.8,71.0,29.93,SSE,158,0.0,1.0,95,0.00,,,0.00,weatherlink.com 1.10,2013-07-11 08:07:00,
2013-07-11 04:22:00,72.7,71.0,29.94,SSE,158,0.0,1.0,95,0.00,,,0.00,weatherlink.com 1.10,2013-07-11 08:22:00,
2013-07-11 04:37:00,72.5,71.0,29.94,SSE,158,0.0,1.0,95,0.00,,,0.00,weatherlink.com 1.10,2013-07-11 08:37:00,
2013-07-11 04:52:00,72.4,71.0,29.95,SSE,165,0.0,1.0,95,0.00,,,0.00,weatherlink.com 1.10,2013-07-11 08:52:00,
2013-07-11 05:07:00,72.4,71.0,29.95,SSE,165,0.0,0.0,96,0.00,,,0.00,weatherlink.com 1.10,2013-07-11 09:07:00,
2013-07-11 05:22:00,72.4,71.0,29.95,SSE,165,0.0,1.0,96,0.00,,,0.00,weatherlink.com 1.10,2013-07-11 09:22:00,
2013-07-11 05:37:00,72.7,72.0,29.95,SE,126,0.0,1.0,96,0.00,,,0.00,weatherlink.com 1.10,2013-07-11 09:37:00,
2013-07-11 05:52:00,72.8,71.0,29.95,SE,127,0.0,1.0,95,0.00,,,0.00,weatherlink.com 1.10,2013-07-11 09:52:00,
2013-07-11 06:07:00,72.8,71.0,29.95,SW,236,1.0,1.0,95,0.00,,,0.00,weatherlink.com 1.10,2013-07-11 10:07:00,
2013-07-11 06:22:00,72.9,71.0,29.95,SSE,160,0.0,3.0,95,0.00,,,0.00,weatherlink.com 1.10,2013-07-11 10:22:00,
2013-07-11 06:37:00,73.0,72.0,29.96,SSE,155,0.0,1.0,95,0.00,,,0.00,weatherlink.com 1.10,2013-07-11 10:37:00,
2013-07-11 06:52:00,73.1,72.0,29.96,WSW,256,0.0,1.0,95,0.00,,,0.00,weatherlink.com 1.10,2013-07-11 10:52:00,
2013-07-11 07:07:00,73.5,72.0,29.96,SW,229,0.0,1.0,95,0.00,,,0.00,weatherlink.com 1.10,2013-07-11 11:07:00,
2013-07-11 07:22:00,73.8,72.0,29.96,SW,221,0.0,1.0,95,0.00,,,0.00,weatherlink.com 1.10,2013-07-11 11:22:00,
2013-07-11 07:37:00,74.5,73.0,29.96,South,187,0.0,4.0,94,0.00,,,0.00,weatherlink.com 1.10,2013-07-11 11:37:00,
2013-07-11 07:52:00,75.2,73.0,29.96,WSW,243,0.0,2.0,93,0.00,,,0.00,weatherlink.com 1.10,2013-07-11 11:52:00,
2013-07-11 08:07:00,75.6,73.0,29.96,SSE,166,1.0,2.0,92,0.00,,,0.00,weatherlink.com 1.10,2013-07-11 12:07:00,
2013-07-11 08:22:00,76.1,74.0,29.96,SSE,150,1.0,5.0,92,0.00,,,0.00,weatherlink.com 1.10,2013-07-11 12:22:00,
2013-07-11 08:37:00,77.1,74.0,29.96,WSW,245,0.0,4.0,90,0.00,,,0.00,weatherlink.com 1.10,2013-07-11 12:37:00,
2013-07-11 08:52:00,77.1,74.0,29.97,SW,227,1.0,3.0,89,0.00,,,0.00,weatherlink.com 1.10,2013-07-11 12:52:00,
2013-07-11 09:07:00,76.7,74.0,29.97,SW,232,0.0,4.0,90,0.00,,,0.00,weatherlink.com 1.10,2013-07-11 13:07:00,
2013-07-11 09:38:00,77.5,74.0,29.97,SSW,207,0.0,4.0,88,0.00,,,0.00,weatherlink.com 1.10,2013-07-11 13:38:00,
2013-07-11 09:53:00,77.4,74.0,29.97,WSW,257,0.0,4.0,88,0.00,,,0.00,weatherlink.com 1.10,2013-07-11 13:53:00,
2013-07-11 10:08:00,77.1,74.0,29.96,WNW,284,0.0,1.0,89,0.00,,,0.00,weatherlink.com 1.10,2013-07-11 14:08:00,
2013-07-11 10:53:00,80.0,74.0,29.96,SSE,150,1.0,6.0,83,0.00,,,0.00,weatherlink.com 1.10,2013-07-11 14:53:00,
2013-07-11 11:08:00,79.9,75.0,29.96,WSW,246,1.0,6.0,84,0.00,,,0.00,weatherlink.com 1.10,2013-07-11 15:08:00,
2013-07-11 11:23:00,80.6,75.0,29.96,SW,214,0.0,5.0,84,0.00,,,0.00,weatherlink.com 1.10,2013-07-11 15:23:00,
2013-07-11 11:53:00,81.4,75.0,29.96,WSW,253,2.0,5.0,80,0.00,,,0.00,weatherlink.com 1.10,2013-07-11 15:53:00,
2013-07-11 12:08:00,82.1,75.0,29.96,SW,233,1.0,3.0,79,0.00,,,0.00,weatherlink.com 1.10,2013-07-11 16:08:00,
2013-07-11 12:23:00,82.5,75.0,29.96,SSW,212,0.0,5.0,78,0.00,,,0.00,weatherlink.com 1.10,2013-07-11 16:23:00,
2013-07-11 13:08:00,82.3,75.0,29.94,WSW,249,1.0,4.0,79,0.00,,,0.00,weatherlink.com 1.10,2013-07-11 17:08:00,
2013-07-11 13:23:00,82.9,76.0,29.94,WSW,255,0.0,5.0,79,0.00,,,0.00,weatherlink.com 1.10,2013-07-11 17:23:00,
2013-07-11 13:53:00,82.9,76.0,29.93,NNE,22,1.0,4.0,79,0.00,,,0.00,weatherlink.com 1.10,2013-07-11 17:53:00,
2013-07-11 14:08:00,82.8,76.0,29.93,ESE,112,1.0,4.0,80,0.00,,,0.00,weatherlink.com 1.10,2013-07-11 18:08:00,
2013-07-11 14:23:00,82.5,77.0,29.92,WSW,243,0.0,1.0,82,0.00,,,0.00,weatherlink.com 1.10,2013-07-11 18:23:00,
2013-07-11 14:38:00,81.7,76.0,29.92,WNW,284,0.0,1.0,83,0.01,,,0.01,weatherlink.com 1.10,2013-07-11 18:38:00,
2013-07-11 15:08:00,77.1,75.0,29.91,SSE,150,0.0,1.0,92,0.23,,,0.23,weatherlink.com 1.10,2013-07-11 19:08:00,
2013-07-11 15:38:00,75.4,73.0,29.91,WSW,246,0.0,1.0,92,0.41,,,0.43,weatherlink.com 1.10,2013-07-11 19:38:00,
2013-07-11 15:53:00,75.3,74.0,29.90,NNE,20,0.0,1.0,94,0.25,,,0.46,weatherlink.com 1.10,2013-07-11 19:53:00,
2013-07-11 16:08:00,75.6,74.0,29.90,North,6,0.0,1.0,94,0.23,,,0.46,weatherlink.com 1.10,2013-07-11 20:08:00,
2013-07-11 16:23:00,75.8,74.0,29.89,West,263,1.0,1.0,94,0.15,,,0.46,weatherlink.com 1.10,2013-07-11 20:23:00,
2013-07-11 16:38:00,76.0,74.0,29.89,SE,131,0.0,1.0,94,0.02,,,0.46,weatherlink.com 1.10,2013-07-11 20:38:00,
2013-07-11 16:54:00,76.0,74.0,29.90,NE,49,0.0,1.0,94,0.00,,,0.46,weatherlink.com 1.10,2013-07-11 20:54:00,
2013-07-11 17:24:00,75.1,73.0,29.90,SE,142,0.0,1.0,94,0.00,,,0.46,weatherlink.com 1.10,2013-07-11 21:24:00,
2013-07-11 17:39:00,74.5,73.0,29.90,SE,144,0.0,2.0,95,0.00,,,0.46,weatherlink.com 1.10,2013-07-11 21:39:00,
2013-07-11 17:54:00,74.1,73.0,29.90,SE,145,0.0,1.0,95,0.01,,,0.47,weatherlink.com 1.10,2013-07-11 21:54:00,
2013-07-11 18:24:00,73.7,73.0,29.90,SE,145,0.0,0.0,96,0.04,,,0.50,weatherlink.com 1.10,2013-07-11 22:24:00,
2013-07-11 18:54:00,73.7,73.0,29.90,SSE,160,0.0,3.0,96,0.04,,,0.51,weatherlink.com 1.10,2013-07-11 22:54:00,
2013-07-11 19:09:00,73.7,73.0,29.90,SSE,160,0.0,1.0,96,0.03,,,0.51,weatherlink.com 1.10,2013-07-11 23:09:00,
2013-07-11 19:39:00,73.7,73.0,29.89,SSE,160,0.0,0.0,96,0.02,,,0.53,weatherlink.com 1.10,2013-07-11 23:39:00,
2013-07-11 19:55:00,73.5,72.0,29.89,SSE,160,0.0,4.0,96,0.03,,,0.54,weatherlink.com 1.10,2013-07-11 23:55:00,
2013-07-11 20:10:00,73.5,72.0,29.89,SSE,160,0.0,1.0,96,0.03,,,0.54,weatherlink.com 1.10,2013-07-12 00:10:00,
2013-07-11 20:55:00,73.3,72.0,29.88,SSE,160,0.0,1.0,96,0.00,,,0.54,weatherlink.com 1.10,2013-07-12 00:55:00,
2013-07-11 21:10:00,73.2,72.0,29.88,SSE,160,0.0,0.0,96,0.00,,,0.54,weatherlink.com 1.10,2013-07-12 01:10:00,
2013-07-11 21:40:00,72.8,72.0,29.90,SE,127,0.0,2.0,96,0.00,,,0.54,weatherlink.com 1.10,2013-07-12 01:40:00,
2013-07-11 21:56:00,72.6,71.0,29.91,ESE,105,0.0,1.0,96,0.00,,,0.54,weatherlink.com 1.10,2013-07-12 01:56:00,
2013-07-11 22:11:00,72.5,71.0,29.92,ESE,105,0.0,1.0,96,0.00,,,0.54,weatherlink.com 1.10,2013-07-12 02:11:00,
2013-07-11 22:41:00,72.2,71.0,29.92,ESE,105,0.0,1.0,97,0.02,,,0.56,weatherlink.com 1.10,2013-07-12 02:41:00,
2013-07-11 22:56:00,72.1,71.0,29.91,ESE,105,0.0,1.0,97,0.02,,,0.56,weatherlink.com 1.10,2013-07-12 02:56:00,
2013-07-11 23:11:00,72.0,71.0,29.91,ESE,104,0.0,0.0,97,0.03,,,0.57,weatherlink.com 1.10,2013-07-12 03:11:00,
2013-07-11 23:26:00,72.0,71.0,29.90,ESE,104,0.0,1.0,97,0.02,,,0.57,weatherlink.com 1.10,2013-07-12 03:26:00,
2013-07-11 23:41:00,71.9,71.0,29.91,ESE,110,0.0,1.0,97,0.02,,,0.58,weatherlink.com 1.10,2013-07-12 03:41:00,
2013-07-11 23:56:00,71.9,71.0,29.91,ESE,113,0.0,1.0,97,0.02,,,0.58,weatherlink.com 1.10,2013-07-12 03:56:00,